Pittsville, Wisconsin
Current Conditions -  °F | °C
As of 7:54 PM on Wednesday 22 Oct 2014 (Local Time) from KMFI Reporting Station
Clear Clear  
Wind Chill: 42°   Ceiling: Unl
Heat Index: 45°   Visibility: 10mi
Dew Point: 35°   Wind: 6mph
Humidity: 68%   Direction: 140°SE
Pressure: 30.18"   Gusts: NA
Location:  44.44°N, 90.12°W
Report Text: KMFI 230054Z AUTO 14005KT 10SM CLR 07/02 A3018 RMK AO2 SLP233 T00720017
Loading
Personal Weather Stations






























Interactive Weather Map
Tropical Storm Tracking
New forecast layout! Learn more

10-Day Weather Forecast

Advertisements
Track Severe Weather on mobile